Time;durP1;ratioP1;P1;durP2;ratioP2;P2;SDS_P1;SDS_P2;PMS_P1;PMS_P2;Temp;Humidity;BMP_temperature;BMP_pressure;BME280_temperature;BME280_humidity;BME280_pressure;Samples;Min_cycle;Max_cycle;Signal;HPM_P1;HPM_P2
2021/07/23 00:01:37;;;;;;;;;;;;;;;21.18;56.45;100030.75;4486039;31;32854;-80
2021/07/23 00:04:06;;;;;;;;;;;;;;;21.10;57.19;100022.88;4485401;31;34740;-82
2021/07/23 00:06:33;;;;;;;;;;;;;;;21.24;57.21;100029.94;4500508;31;35656;-81
2021/07/23 00:09:01;;;;;;;;;;;;;;;21.38;55.94;100020.81;4485888;31;35312;-82
2021/07/23 00:11:29;;;;;;;;;;;;;;;21.30;55.91;100021.00;4485848;31;33231;-82
2021/07/23 00:13:56;;;;;;;;;;;;;;;21.25;56.15;100018.09;4485725;31;34033;-82
2021/07/23 00:16:23;;;;;;;;;;;;;;;21.32;55.79;100020.78;4485761;31;35434;-80
2021/07/23 00:18:52;;;;;;;;;;;;;;;21.06;57.01;100021.59;4485856;31;34608;-81
2021/07/23 00:21:20;;;;;;;;;;;;;;;21.11;56.64;100015.56;4485887;31;33225;-81
2021/07/23 00:23:48;;;;;;;;;;;;;;;20.96;57.08;100018.47;4485968;31;33639;-82
2021/07/23 00:26:19;;;;;;;;;;;;;;;21.02;57.47;100028.47;4472990;31;35255;-81
2021/07/23 00:28:46;;;;;;;;;;;;;;;20.92;57.65;100029.91;4500222;31;33972;-81
2021/07/23 00:31:14;;;;;;;;;;;;;;;20.74;58.31;100024.19;4500004;31;33429;-82
2021/07/23 00:33:41;;;;;;;;;;;;;;;20.99;57.65;100017.22;4472402;31;34844;-81
2021/07/23 00:36:10;;;;;;;;;;;;;;;20.81;58.08;100025.06;4482949;32;34807;-80
2021/07/23 00:38:38;;;;;;;;;;;;;;;20.91;57.74;100026.38;4470096;32;36260;-80
2021/07/23 00:41:06;;;;;;;;;;;;;;;20.72;58.62;100027.13;4482090;32;35170;-80
2021/07/23 00:43:33;;;;;;;;;;;;;;;20.76;58.44;100028.38;4484252;32;33998;-80
2021/07/23 00:46:02;;;;;;;;;;;;;;;20.95;57.88;100033.03;4469879;32;35388;-81
2021/07/23 00:48:30;;;;;;;;;;;;;;;20.53;59.06;100030.56;4482846;32;34996;-82
2021/07/23 00:50:59;;;;;;;;;;;;;;;20.74;58.43;100026.91;4483067;32;32865;-80
2021/07/23 00:53:26;;;;;;;;;;;;;;;20.85;58.33;100027.19;4470266;32;35752;-81
2021/07/23 00:55:55;;;;;;;;;;;;;;;20.69;58.67;100029.41;4482791;32;35200;-82
2021/07/23 00:58:23;;;;;;;;;;;;;;;20.58;59.53;100020.00;4470258;32;35026;-81
2021/07/23 01:00:51;;;;;;;;;;;;;;;20.70;59.37;100025.66;4484268;32;32859;-82
2021/07/23 01:03:21;;;;;;;;;;;;;;;20.92;58.26;100022.63;4482981;32;33968;-80
2021/07/23 01:05:50;;;;;;;;;;;;;;;21.02;57.00;100022.22;4470159;32;35206;-80
2021/07/23 01:08:18;;;;;;;;;;;;;;;20.40;59.80;100023.44;4482774;32;34911;-81
2021/07/23 01:10:47;;;;;;;;;;;;;;;20.52;59.99;100011.88;4483116;32;32907;-79
2021/07/23 01:13:15;;;;;;;;;;;;;;;20.62;59.26;100015.84;4482750;32;34770;-80
2021/07/23 01:15:42;;;;;;;;;;;;;;;20.75;59.28;100015.88;4469652;32;35976;-81
2021/07/23 01:18:11;;;;;;;;;;;;;;;20.88;58.29;100015.12;4482812;32;33565;-81
2021/07/23 01:20:39;;;;;;;;;;;;;;;20.71;58.37;100019.22;4482665;32;33291;-82
2021/07/23 01:23:06;;;;;;;;;;;;;;;20.42;59.00;100011.41;4469475;32;35056;-81
2021/07/23 01:25:34;;;;;;;;;;;;;;;20.80;56.84;100016.09;4469554;32;35961;-82
2021/07/23 01:28:03;;;;;;;;;;;;;;;20.78;56.80;100006.53;4482706;32;34455;-80
2021/07/23 01:30:32;;;;;;;;;;;;;;;20.67;57.23;100012.53;4482556;32;34737;-80
2021/07/23 01:33:00;;;;;;;;;;;;;;;20.66;57.36;100017.09;4469558;32;34119;-81
2021/07/23 01:35:28;;;;;;;;;;;;;;;20.57;57.63;100009.38;4469202;32;34702;-80
2021/07/23 01:37:57;;;;;;;;;;;;;;;20.67;57.23;100012.53;4483659;32;35168;-81
2021/07/23 01:40:25;;;;;;;;;;;;;;;20.29;58.67;100016.75;4482248;32;33348;-81
2021/07/23 01:42:53;;;;;;;;;;;;;;;20.33;58.91;100012.63;4482591;32;34039;-82
2021/07/23 01:45:21;;;;;;;;;;;;;;;20.06;59.96;100015.38;4482388;32;35163;-81
2021/07/23 01:47:54;;;;;;;;;;;;;;;20.31;58.95;100008.44;4470271;32;34677;-81
2021/07/23 01:50:22;;;;;;;;;;;;;;;20.37;58.73;100007.66;4482115;32;33175;-81
2021/07/23 01:52:51;;;;;;;;;;;;;;;20.07;59.97;100011.62;4485352;32;34535;-81
2021/07/23 01:55:18;;;;;;;;;;;;;;;20.27;59.22;100009.91;4471495;32;35728;-82
2021/07/23 01:57:46;;;;;;;;;;;;;;;20.17;59.10;100010.25;4471478;32;35598;-81
2021/07/23 02:00:14;;;;;;;;;;;;;;;20.31;58.73;100005.75;4483541;32;33933;-82
2021/07/23 02:02:42;;;;;;;;;;;;;;;20.24;58.81;100007.56;4484819;32;34042;-80
2021/07/23 02:05:14;;;;;;;;;;;;;;;20.10;59.81;100008.56;4471313;32;35163;-81
2021/07/23 02:07:41;;;;;;;;;;;;;;;20.27;59.16;100004.50;4483579;32;34704;-81
2021/07/23 02:10:10;;;;;;;;;;;;;;;20.14;59.94;100005.25;4484929;32;32853;-81
2021/07/23 02:12:37;;;;;;;;;;;;;;;19.85;61.28;100008.19;4483479;32;34538;-80
2021/07/23 02:15:07;;;;;;;;;;;;;;;20.12;60.45;99998.38;4484778;32;34866;-80
2021/07/23 02:17:35;;;;;;;;;;;;;;;20.06;60.24;100000.00;4470785;32;34856;-82
2021/07/23 02:20:04;;;;;;;;;;;;;;;20.15;59.86;100000.66;4483813;32;33980;-79
2021/07/23 02:22:33;;;;;;;;;;;;;;;20.16;60.49;100000.47;4483382;32;34781;-82
2021/07/23 02:25:01;;;;;;;;;;;;;;;20.15;60.67;99995.25;4471114;32;35851;-80
2021/07/23 02:27:32;;;;;;;;;;;;;;;20.14;60.28;99996.31;4483461;32;35462;-80
2021/07/23 02:30:00;;;;;;;;;;;;;;;20.05;60.21;99994.78;4483399;32;33396;-80
2021/07/23 02:32:28;;;;;;;;;;;;;;;20.36;58.25;99996.00;4470276;32;34953;-80
2021/07/23 02:34:56;;;;;;;;;;;;;;;20.10;59.31;99995.03;4470377;32;36788;-82
2021/07/23 02:37:23;;;;;;;;;;;;;;;20.33;57.95;99996.41;4470380;32;34726;-80
2021/07/23 02:39:52;;;;;;;;;;;;;;;20.13;59.17;100000.03;4469934;32;33743;-81
2021/07/23 02:42:19;;;;;;;;;;;;;;;20.10;58.78;99997.75;4470620;32;35183;-80
2021/07/23 02:44:47;;;;;;;;;;;;;;;19.88;60.24;99996.97;4483266;32;35264;-82
2021/07/23 02:47:15;;;;;;;;;;;;;;;19.81;61.05;99996.09;4484606;32;35253;-80
2021/07/23 02:49:43;;;;;;;;;;;;;;;19.90;60.72;99991.38;4483356;32;33256;-81
2021/07/23 02:52:12;;;;;;;;;;;;;;;20.09;60.18;99987.97;4484553;32;34177;-82
2021/07/23 02:54:40;;;;;;;;;;;;;;;19.89;61.57;99993.22;4482855;32;35849;-81
2021/07/23 02:57:09;;;;;;;;;;;;;;;20.02;61.08;99978.97;4483706;32;34187;-81
2021/07/23 02:59:39;;;;;;;;;;;;;;;20.12;60.63;99991.13;4484365;32;33923;-82
2021/07/23 03:02:09;;;;;;;;;;;;;;;19.92;61.03;99992.00;4483228;32;34569;-80
2021/07/23 03:04:37;;;;;;;;;;;;;;;20.25;59.19;99983.06;4484234;32;34786;-81
2021/07/23 03:07:05;;;;;;;;;;;;;;;19.88;60.42;99982.62;4483498;32;34038;-80
2021/07/23 03:09:33;;;;;;;;;;;;;;;19.98;60.08;99975.84;4484190;32;33110;-80
2021/07/23 03:12:01;;;;;;;;;;;;;;;19.93;60.54;99978.28;4470559;32;33785;-82
2021/07/23 03:14:32;;;;;;;;;;;;;;;20.05;59.87;99984.00;4483783;32;34755;-82
2021/07/23 03:17:00;;;;;;;;;;;;;;;20.23;58.49;99978.87;4471016;32;35260;-80
2021/07/23 03:19:27;;;;;;;;;;;;;;;20.14;58.96;99980.09;4483974;32;33134;-81
2021/07/23 03:21:55;;;;;;;;;;;;;;;20.03;59.83;99986.88;4470261;32;35520;-80
2021/07/23 03:24:24;;;;;;;;;;;;;;;19.99;59.91;99988.31;4483179;32;36327;-82
2021/07/23 03:26:52;;;;;;;;;;;;;;;20.02;59.70;99989.78;4483495;32;34580;-80
2021/07/23 03:29:21;;;;;;;;;;;;;;;20.10;58.96;99986.94;4485044;32;33210;-81
2021/07/23 03:31:49;;;;;;;;;;;;;;;19.85;59.97;99989.28;4483172;32;36040;-80
2021/07/23 03:34:17;;;;;;;;;;;;;;;19.95;60.30;99981.66;4486529;31;35217;-80
2021/07/23 03:36:47;;;;;;;;;;;;;;;19.91;60.29;99984.94;4500664;31;34514;-82
2021/07/23 03:39:15;;;;;;;;;;;;;;;19.94;60.20;99989.94;4486144;31;33232;-80
2021/07/23 03:41:42;;;;;;;;;;;;;;;19.89;60.84;99984.28;4486105;31;34786;-80
2021/07/23 03:44:12;;;;;;;;;;;;;;;19.70;61.59;99985.00;4500621;31;35141;-80
2021/07/23 03:46:40;;;;;;;;;;;;;;;19.86;61.72;99980.13;4485885;31;35106;-80
2021/07/23 03:49:08;;;;;;;;;;;;;;;20.00;60.55;99984.56;4500478;31;32870;-82
2021/07/23 03:51:37;;;;;;;;;;;;;;;20.00;60.74;99981.03;4486489;31;33682;-82
2021/07/23 03:54:06;;;;;;;;;;;;;;;20.11;60.40;99980.50;4486440;31;35144;-80
2021/07/23 03:56:34;;;;;;;;;;;;;;;19.98;61.14;99983.09;4486193;31;34209;-80
2021/07/23 03:59:04;;;;;;;;;;;;;;;20.27;59.66;99983.69;4485511;31;34212;-82
2021/07/23 04:01:33;;;;;;;;;;;;;;;20.23;60.01;99981.59;4473850;31;33923;-80
2021/07/23 04:04:01;;;;;;;;;;;;;;;20.27;60.25;99983.69;4485951;31;35330;-80
2021/07/23 04:06:29;;;;;;;;;;;;;;;20.35;60.07;99982.66;4500177;31;34224;-81
2021/07/23 04:08:57;;;;;;;;;;;;;;;20.34;59.90;99979.16;4473247;31;33969;-80
2021/07/23 04:11:48;;;;;;;;;;;;;;;20.53;59.38;99978.37;4485904;31;34033;-82
2021/07/23 04:14:15;;;;;;;;;;;;;;;20.58;59.34;99976.75;4487985;31;35871;-81
2021/07/23 04:16:44;;;;;;;;;;;;;;;20.68;59.30;99981.78;4485437;31;34467;-80
2021/07/23 04:19:13;;;;;;;;;;;;;;;20.78;59.39;99979.50;4500433;31;33121;-81
2021/07/23 04:21:41;;;;;;;;;;;;;;;20.91;59.23;99980.41;4485902;31;34860;-80
2021/07/23 04:24:10;;;;;;;;;;;;;;;20.78;60.72;99976.81;4486134;31;35266;-80
2021/07/23 04:26:38;;;;;;;;;;;;;;;20.95;59.66;99976.22;4499998;31;34514;-80
2021/07/23 04:29:06;;;;;;;;;;;;;;;21.12;58.82;99980.19;4500151;31;33297;-82
2021/07/23 04:31:34;;;;;;;;;;;;;;;20.99;59.30;99985.59;4500339;31;33964;-80
2021/07/23 04:34:02;;;;;;;;;;;;;;;21.19;58.68;99986.47;4499899;31;35134;-82
2021/07/23 04:36:34;;;;;;;;;;;;;;;21.29;58.44;99983.31;4472246;31;35247;-80
2021/07/23 04:39:03;;;;;;;;;;;;;;;21.40;58.26;99982.69;4473304;31;33201;-82
2021/07/23 04:41:31;;;;;;;;;;;;;;;21.43;57.89;99982.28;4459668;31;34854;-80
2021/07/23 04:43:59;;;;;;;;;;;;;;;21.54;57.10;99985.19;4472403;31;36105;-81
2021/07/23 04:46:26;;;;;;;;;;;;;;;21.33;58.82;99988.13;4485921;31;34642;-81
2021/07/23 04:48:54;;;;;;;;;;;;;;;21.48;58.30;99974.38;4500137;31;32446;-80
2021/07/23 04:51:23;;;;;;;;;;;;;;;21.56;58.25;99976.84;4471886;31;35632;-81
2021/07/23 04:53:56;;;;;;;;;;;;;;;21.74;57.63;99972.47;4485015;31;36105;-80
2021/07/23 04:56:24;;;;;;;;;;;;;;;21.82;57.21;99974.97;4485998;31;34228;-80
2021/07/23 04:58:52;;;;;;;;;;;;;;;21.93;57.04;99978.91;4485707;31;33839;-81
2021/07/23 05:01:19;;;;;;;;;;;;;;;21.97;56.94;99974.72;4500060;31;33750;-79
2021/07/23 05:03:47;;;;;;;;;;;;;;;22.08;57.15;99977.59;4472858;31;34859;-80
2021/07/23 05:06:15;;;;;;;;;;;;;;;22.04;57.24;99970.97;4485329;31;34114;-80
2021/07/23 05:08:43;;;;;;;;;;;;;;;22.05;57.73;99985.31;4471879;31;34810;-81
2021/07/23 05:11:14;;;;;;;;;;;;;;;22.15;57.40;99970.28;4473071;31;34638;-81
2021/07/23 05:13:43;;;;;;;;;;;;;;;22.34;56.96;99973.97;4485904;31;35504;-79
2021/07/23 05:16:11;;;;;;;;;;;;;;;22.44;57.04;99969.78;4459185;31;33470;-80
2021/07/23 05:18:39;;;;;;;;;;;;;;;22.31;57.53;99972.53;4485400;31;33223;-80
2021/07/23 05:21:10;;;;;;;;;;;;;;;22.47;56.95;99973.94;4471883;31;34634;-81
2021/07/23 05:23:39;;;;;;;;;;;;;;;22.00;57.09;99972.41;4485551;31;35064;-82
2021/07/23 05:26:07;;;;;;;;;;;;;;;22.48;56.73;99968.28;4485074;31;34212;-81
2021/07/23 05:28:35;;;;;;;;;;;;;;;22.80;55.91;99970.00;4485859;31;33447;-82
2021/07/23 05:31:06;;;;;;;;;;;;;;;22.08;56.91;99966.75;4499864;31;35187;-82
2021/07/23 05:33:33;;;;;;;;;;;;;;;22.87;55.70;99968.09;4458808;31;36771;-81
2021/07/23 05:36:01;;;;;;;;;;;;;;;23.09;54.00;99963.94;4444982;32;1179861;-82
2021/07/23 05:38:28;;;;;;;;;;;;;;;23.15;53.90;99968.53;4469656;32;34719;-82
2021/07/23 05:40:56;;;;;;;;;;;;;;;22.86;54.96;99965.59;4469821;32;35098;-82
2021/07/23 05:43:23;;;;;;;;;;;;;;;22.73;53.86;99973.81;4482359;32;34810;-82
2021/07/23 05:45:51;;;;;;;;;;;;;;;22.64;54.20;99973.22;4483454;32;34674;-82
2021/07/23 05:48:18;;;;;;;;;;;;;;;23.23;53.03;99970.97;4482159;32;33665;-84
2021/07/23 05:50:46;;;;;;;;;;;;;;;23.24;51.58;99966.38;4482540;32;34527;-78
2021/07/23 05:53:13;;;;;;;;;;;;;;;22.80;51.65;99970.00;4482131;32;35103;-85
2021/07/23 05:55:41;;;;;;;;;;;;;;;23.26;51.49;99973.25;4469402;32;35299;-76
2021/07/23 05:58:09;;;;;;;;;;;;;;;22.63;51.27;99968.84;4469068;32;33826;-83
2021/07/23 06:00:36;;;;;;;;;;;;;;;23.18;50.49;99961.81;4469336;32;34132;-81
2021/07/23 06:03:04;;;;;;;;;;;;;;;23.49;51.38;99968.03;4469166;32;35949;-80
2021/07/23 06:05:32;;;;;;;;;;;;;;;23.65;49.96;99972.91;4481930;32;35244;-81
2021/07/23 06:07:59;;;;;;;;;;;;;;;23.33;50.66;99965.06;4483032;32;33521;-82
2021/07/23 06:10:27;;;;;;;;;;;;;;;23.68;51.00;99972.44;4481449;32;34713;-81
2021/07/23 06:12:55;;;;;;;;;;;;;;;23.85;48.73;99962.69;4481260;32;35473;-79
2021/07/23 06:15:22;;;;;;;;;;;;;;;23.37;50.17;99971.69;4468758;32;34164;-81
2021/07/23 06:17:50;;;;;;;;;;;;;;;23.82;48.69;99968.56;4481225;32;34168;-77
2021/07/23 06:20:17;;;;;;;;;;;;;;;24.04;49.24;99972.50;4482529;32;33931;-84
2021/07/23 06:22:44;;;;;;;;;;;;;;;24.20;50.75;99971.91;4468620;32;35200;-79
2021/07/23 06:25:12;;;;;;;;;;;;;;;24.26;50.79;99971.00;4468399;32;35727;-81
2021/07/23 06:27:40;;;;;;;;;;;;;;;24.37;50.88;99968.34;4481344;32;33190;-81
2021/07/23 06:30:07;;;;;;;;;;;;;;;24.59;50.58;99980.44;4481135;32;35478;-81
2021/07/23 06:32:35;;;;;;;;;;;;;;;24.34;49.20;99976.13;4481839;32;35740;-82
2021/07/23 06:35:03;;;;;;;;;;;;;;;24.60;47.78;99975.81;4481317;32;34442;-78
2021/07/23 06:37:30;;;;;;;;;;;;;;;24.51;48.33;99971.72;4481567;32;33706;-84
2021/07/23 06:39:58;;;;;;;;;;;;;;;24.53;48.33;99964.16;4470700;32;33995;-80
2021/07/23 06:42:25;;;;;;;;;;;;;;;24.38;47.82;99970.00;4470864;32;35919;-81
2021/07/23 06:44:53;;;;;;;;;;;;;;;24.68;48.50;99968.19;4484068;32;34505;-80
2021/07/23 06:47:21;;;;;;;;;;;;;;;24.85;47.15;99979.25;4471132;32;34282;-79
2021/07/23 06:52:35;;;;;;;;;;;;;;;25.20;46.24;99967.38;4484991;32;36772;-81
2021/07/23 06:55:03;;;;;;;;;;;;;;;25.34;46.96;99971.59;4484016;32;34897;-80
2021/07/23 06:57:34;;;;;;;;;;;;;;;24.99;47.61;99981.53;4470589;32;33875;-83
2021/07/23 07:00:02;;;;;;;;;;;;;;;25.17;46.65;99969.72;4471100;32;34576;-80
2021/07/23 07:02:29;;;;;;;;;;;;;;;25.02;46.25;99974.81;4484872;32;35118;-84
2021/07/23 07:04:58;;;;;;;;;;;;;;;25.12;46.05;99970.44;4470712;32;34495;-80
2021/07/23 07:07:26;;;;;;;;;;;;;;;25.59;45.78;99977.63;4470462;32;34113;-82
2021/07/23 07:09:54;;;;;;;;;;;;;;;25.18;44.77;99971.37;4484850;32;34675;-84
2021/07/23 07:12:21;;;;;;;;;;;;;;;25.70;44.00;99974.09;4483789;32;35212;-82
2021/07/23 07:14:51;;;;;;;;;;;;;;;25.93;43.09;99967.81;4483314;32;34554;-78
2021/07/23 07:17:20;;;;;;;;;;;;;;;25.47;42.45;99968.63;4483552;32;33435;-81
2021/07/23 07:19:49;;;;;;;;;;;;;;;25.80;41.87;99960.72;4483701;32;34282;-79
2021/07/23 07:22:17;;;;;;;;;;;;;;;25.20;43.55;99964.66;4483400;32;35089;-82
2021/07/23 07:24:45;;;;;;;;;;;;;;;25.80;43.82;99977.06;4483722;32;35191;-82
2021/07/23 07:27:13;;;;;;;;;;;;;;;25.33;44.72;99971.81;4484995;32;33980;-82
2021/07/23 07:29:41;;;;;;;;;;;;;;;25.68;44.28;99962.59;4483302;32;34114;-80
2021/07/23 07:32:09;;;;;;;;;;;;;;;25.88;43.10;99967.72;4483256;32;36767;-82
2021/07/23 07:34:36;;;;;;;;;;;;;;;26.08;42.71;99954.53;4482925;32;34655;-85
2021/07/23 07:37:04;;;;;;;;;;;;;;;26.79;43.50;99953.00;4484619;32;33243;-82
2021/07/23 07:39:32;;;;;;;;;;;;;;;27.10;41.12;99955.22;4484579;32;33686;-82
2021/07/23 07:42:01;;;;;;;;;;;;;;;27.00;42.64;99965.13;4483525;32;35952;-85
2021/07/23 07:44:29;;;;;;;;;;;;;;;27.42;39.36;99956.34;4483411;32;34545;-83
2021/07/23 07:46:56;;;;;;;;;;;;;;;27.06;41.20;99953.25;4483152;32;34648;-79
2021/07/23 07:49:24;;;;;;;;;;;;;;;26.13;40.28;99952.72;4483188;32;33641;-81
2021/07/23 07:51:52;;;;;;;;;;;;;;;26.28;40.72;99952.22;4470597;32;36005;-80
2021/07/23 07:54:19;;;;;;;;;;;;;;;26.61;40.03;99946.94;4484404;32;35261;-81
2021/07/23 07:56:47;;;;;;;;;;;;;;;26.72;40.88;99951.50;4484760;32;33528;-85
2021/07/23 07:59:15;;;;;;;;;;;;;;;27.16;40.37;99951.53;4483547;32;33907;-83
2021/07/23 08:01:43;;;;;;;;;;;;;;;27.10;40.38;99949.78;4483328;32;35121;-82
2021/07/23 08:04:12;;;;;;;;;;;;;;;27.28;40.51;99949.56;4483161;32;34544;-84
2021/07/23 08:06:41;;;;;;;;;;;;;;;27.33;39.69;99953.22;4483188;32;33214;-83
2021/07/23 08:09:11;;;;;;;;;;;;;;;27.24;39.62;99951.97;4484680;32;34435;-82
2021/07/23 08:11:39;;;;;;;;;;;;;;;27.48;38.92;99952.63;4483194;32;37142;-84
2021/07/23 08:14:07;;;;;;;;;;;;;;;27.74;38.86;99954.66;4484565;32;34554;-84
2021/07/23 08:16:34;;;;;;;;;;;;;;;27.62;37.82;99952.03;4483018;32;32939;-82
2021/07/23 08:19:03;;;;;;;;;;;;;;;27.60;39.89;99956.94;4482888;32;34692;-83
2021/07/23 08:21:33;;;;;;;;;;;;;;;27.72;39.21;99956.81;4470359;32;35616;-80
2021/07/23 08:24:00;;;;;;;;;;;;;;;26.98;39.37;99950.91;4484475;32;34000;-81
2021/07/23 08:26:28;;;;;;;;;;;;;;;26.88;39.34;99945.25;4470237;32;32856;-85
2021/07/23 08:28:56;;;;;;;;;;;;;;;26.76;41.08;99950.78;4483068;32;34161;-83
2021/07/23 08:31:23;;;;;;;;;;;;;;;27.17;40.86;99953.19;4484381;32;35193;-81
2021/07/23 08:33:51;;;;;;;;;;;;;;;26.81;41.73;99952.78;4482976;32;34809;-81
2021/07/23 08:36:19;;;;;;;;;;;;;;;26.78;40.92;99953.28;4482788;32;33340;-85
2021/07/23 08:38:46;;;;;;;;;;;;;;;27.86;38.10;99950.75;4484206;32;33595;-82
2021/07/23 08:41:14;;;;;;;;;;;;;;;28.00;38.69;99945.75;4483103;32;35944;-84
2021/07/23 08:43:42;;;;;;;;;;;;;;;27.75;39.21;99940.75;4482858;32;34457;-82
2021/07/23 08:46:09;;;;;;;;;;;;;;;28.23;38.34;99948.25;4483243;32;32238;-82
2021/07/23 08:48:37;;;;;;;;;;;;;;;27.86;38.31;99942.56;4470277;32;33974;-80
2021/07/23 08:51:05;;;;;;;;;;;;;;;27.70;38.05;99948.03;4482703;32;35433;-83
2021/07/23 08:53:32;;;;;;;;;;;;;;;28.28;37.85;99937.38;4483029;32;34546;-83
2021/07/23 08:56:01;;;;;;;;;;;;;;;28.72;38.74;99939.00;4482741;32;33988;-81
2021/07/23 08:58:28;;;;;;;;;;;;;;;28.58;37.10;99929.53;4484363;32;34566;-83
2021/07/23 09:00:57;;;;;;;;;;;;;;;28.48;37.44;99933.00;4483219;32;35085;-82
2021/07/23 09:03:25;;;;;;;;;;;;;;;28.45;37.62;99938.16;4470362;32;34551;-81
2021/07/23 09:05:52;;;;;;;;;;;;;;;28.34;36.75;99936.38;4469788;32;34486;-84
2021/07/23 09:08:21;;;;;;;;;;;;;;;28.70;35.98;99936.53;4469949;32;34007;-84
2021/07/23 09:11:02;;;;;;;;;;;;;;;28.85;35.55;99936.69;4482943;32;36039;-82
2021/07/23 09:13:30;;;;;;;;;;;;;;;28.67;37.69;99934.31;4482819;32;34872;-82
2021/07/23 09:15:58;;;;;;;;;;;;;;;28.54;36.39;99931.16;4483813;32;34015;-82
2021/07/23 09:18:41;;;;;;;;;;;;;;;28.22;38.28;99933.75;4483006;32;34960;-82
2021/07/23 09:21:09;;;;;;;;;;;;;;;29.06;34.86;99924.06;4482739;32;34740;-82
2021/07/23 09:23:37;;;;;;;;;;;;;;;29.22;36.19;99921.19;4469553;32;34502;-82
2021/07/23 09:26:07;;;;;;;;;;;;;;;29.34;35.83;99912.78;4470049;32;33224;-83
2021/07/23 09:28:37;;;;;;;;;;;;;;;28.75;35.59;99911.94;4482744;32;32516;-82
2021/07/23 09:31:05;;;;;;;;;;;;;;;29.20;37.66;99923.34;4469808;32;36524;-82
2021/07/23 09:33:37;;;;;;;;;;;;;;;29.00;37.13;99917.72;4482515;32;34838;-83
2021/07/23 09:36:09;;;;;;;;;;;;;;;29.34;37.37;99921.81;4496869;31;33657;-84
2021/07/23 09:38:40;;;;;;;;;;;;;;;29.11;37.35;99911.22;4472322;31;34113;-83
2021/07/23 09:41:12;;;;;;;;;;;;;;;29.58;36.26;99908.56;4485197;31;35918;-82
2021/07/23 09:43:41;;;;;;;;;;;;;;;29.00;36.14;99908.66;4499609;31;35333;-84
2021/07/23 09:46:18;;;;;;;;;;;;;;;29.10;37.59;99909.56;4485407;31;33927;-86
2021/07/23 09:48:47;;;;;;;;;;;;;;;29.05;35.69;99895.81;4485218;31;33615;-84
2021/07/23 09:51:15;;;;;;;;;;;;;;;29.36;37.33;99896.88;4472012;31;33698;-84
2021/07/23 09:53:44;;;;;;;;;;;;;;;29.65;35.41;99896.31;4499191;31;34139;-85
2021/07/23 09:56:11;;;;;;;;;;;;;;;29.73;36.34;99889.50;4471931;31;33956;-84
2021/07/23 09:58:41;;;;;;;;;;;;;;;29.52;37.04;99893.22;4472218;31;34022;-85
2021/07/23 10:01:11;;;;;;;;;;;;;;;29.50;34.61;99890.72;4484751;31;35852;-82
2021/07/23 10:03:39;;;;;;;;;;;;;;;30.19;32.47;99891.38;4484223;31;35371;-85
2021/07/23 10:06:12;;;;;;;;;;;;;;;29.86;34.67;99891.75;4472031;31;33733;-83
2021/07/23 10:08:40;;;;;;;;;;;;;;;30.13;34.57;99889.72;4484890;31;33937;-83
2021/07/23 10:11:08;;;;;;;;;;;;;;;30.05;34.95;99890.19;4484629;31;34828;-84
2021/07/23 10:13:38;;;;;;;;;;;;;;;29.70;36.36;99879.87;4472766;31;36097;-84
2021/07/23 10:16:06;;;;;;;;;;;;;;;29.76;35.38;99880.72;4486650;31;34124;-82
2021/07/23 10:18:35;;;;;;;;;;;;;;;30.32;33.82;99882.62;4500938;31;34260;-82
2021/07/23 10:21:02;;;;;;;;;;;;;;;30.35;32.87;99879.37;4474186;31;35190;-85
2021/07/23 10:23:31;;;;;;;;;;;;;;;29.68;34.83;99881.22;4486738;31;35449;-82
2021/07/23 10:25:59;;;;;;;;;;;;;;;29.68;36.28;99873.84;4486747;31;33216;-83
2021/07/23 10:28:38;;;;;;;;;;;;;;;29.52;33.76;99879.50;4486656;31;33571;-83
2021/07/23 10:31:22;;;;;;;;;;;;;;;30.19;33.08;99874.91;4500669;31;35253;-83
2021/07/23 10:33:50;;;;;;;;;;;;;;;30.50;32.83;99872.00;4500934;31;35448;-83
2021/07/23 10:36:24;;;;;;;;;;;;;;;30.64;33.01;99870.41;4470790;32;33215;-85
2021/07/23 10:39:13;;;;;;;;;;;;;;;30.75;32.87;99867.41;4484069;32;35245;-81
2021/07/23 10:41:42;;;;;;;;;;;;;;;31.03;32.22;99860.53;4483821;32;35609;-79
2021/07/23 10:44:11;;;;;;;;;;;;;;;31.27;32.35;99865.22;4471085;32;34174;-78
2021/07/23 10:46:44;;;;;;;;;;;;;;;31.77;30.60;99858.81;4484061;32;33834;-83
2021/07/23 10:49:24;;;;;;;;;;;;;;;31.10;31.88;99863.81;4483723;32;33570;-78
2021/07/23 10:51:52;;;;;;;;;;;;;;;30.35;32.98;99849.97;4484880;32;35785;-82
2021/07/23 10:54:20;;;;;;;;;;;;;;;30.72;32.42;99856.13;4483872;31;33753;-81
2021/07/23 10:56:49;;;;;;;;;;;;;;;30.72;31.72;99851.47;4485197;32;33668;-81
2021/07/23 10:59:35;;;;;;;;;;;;;;;30.84;31.87;99849.28;4470876;32;33253;-81
2021/07/23 11:02:04;;;;;;;;;;;;;;;30.71;32.08;99854.47;4483854;32;35616;-80
2021/07/23 11:04:32;;;;;;;;;;;;;;;31.11;30.52;99847.06;4470981;32;34697;-77
2021/07/23 11:07:03;;;;;;;;;;;;;;;31.23;29.99;99846.81;4470956;32;33741;-81
2021/07/23 11:09:31;;;;;;;;;;;;;;;31.93;29.94;99838.41;4471167;32;34727;-78
2021/07/23 11:12:12;;;;;;;;;;;;;;;32.47;26.95;99837.31;4470969;32;34941;-77
2021/07/23 11:14:40;;;;;;;;;;;;;;;32.51;26.46;99832.87;4471018;32;34774;-79
2021/07/23 11:17:10;;;;;;;;;;;;;;;31.91;27.69;99833.16;4470371;32;33195;-81
2021/07/23 11:19:37;;;;;;;;;;;;;;;31.35;29.06;99826.16;4483569;32;35048;-80
2021/07/23 11:22:05;;;;;;;;;;;;;;;31.36;28.78;99819.56;4483554;32;34701;-80
2021/07/23 11:24:34;;;;;;;;;;;;;;;31.86;28.41;99818.63;4470336;32;35883;-79
2021/07/23 11:27:01;;;;;;;;;;;;;;;32.45;26.17;99811.19;4485081;32;33602;-80
2021/07/23 11:29:29;;;;;;;;;;;;;;;32.98;26.63;99811.06;4483619;32;34365;-79
2021/07/23 11:32:23;;;;;;;;;;;;;;;32.96;26.17;99815.19;4484757;32;36016;-78
2021/07/23 11:35:04;;;;;;;;;;;;;;;33.28;24.98;99812.75;4481290;32;34600;-80
2021/07/23 11:37:31;;;;;;;;;;;;;;;33.58;26.54;99806.88;4483701;32;33646;-81
2021/07/23 11:40:00;;;;;;;;;;;;;;;34.35;23.04;99802.59;4470674;32;34991;-81
2021/07/23 11:42:37;;;;;;;;;;;;;;;34.54;24.09;99794.31;4483726;32;35870;-79
2021/07/23 11:45:12;;;;;;;;;;;;;;;34.12;25.15;99802.63;4483757;32;35710;-84
2021/07/23 11:47:43;;;;;;;;;;;;;;;34.19;24.87;99792.03;4458185;32;33970;-80
2021/07/23 11:50:16;;;;;;;;;;;;;;;34.83;24.34;99797.72;4483510;32;34650;-83
2021/07/23 11:52:45;;;;;;;;;;;;;;;34.25;23.59;99794.47;4470432;32;35706;-80
2021/07/23 11:55:16;;;;;;;;;;;;;;;34.83;23.69;99790.25;4484844;32;34717;-82
2021/07/23 11:57:44;;;;;;;;;;;;;;;34.71;23.34;99792.66;4470207;32;33263;-79
2021/07/23 12:00:21;;;;;;;;;;;;;;;34.77;24.93;99791.47;4483435;32;34154;-84
2021/07/23 12:02:50;;;;;;;;;;;;;;;34.72;24.79;99783.25;4484678;32;35253;-80
2021/07/23 12:05:18;;;;;;;;;;;;;;;34.71;23.29;99789.91;4470496;32;35171;-79
2021/07/23 12:07:58;;;;;;;;;;;;;;;34.84;24.44;99780.81;4470468;32;35105;-82
2021/07/23 12:10:32;;;;;;;;;;;;;;;34.92;23.82;99782.91;4484982;32;33559;-83
2021/07/23 12:13:04;;;;;;;;;;;;;;;35.68;22.69;99774.03;4470751;32;35829;-80
2021/07/23 12:15:50;;;;;;;;;;;;;;;35.87;22.40;99778.31;4483188;32;34512;-79
2021/07/23 12:18:18;;;;;;;;;;;;;;;34.61;23.26;99775.38;4470596;32;34162;-82
2021/07/23 12:20:46;;;;;;;;;;;;;;;35.09;24.34;99777.63;4483221;32;35014;-77
2021/07/23 12:23:25;;;;;;;;;;;;;;;35.51;20.91;99769.09;4483393;32;36100;-80
2021/07/23 12:25:54;;;;;;;;;;;;;;;34.47;24.16;99769.00;4470634;32;33346;-79
2021/07/23 12:28:22;;;;;;;;;;;;;;;34.74;24.04;99766.38;4483361;32;33629;-77
2021/07/23 12:30:50;;;;;;;;;;;;;;;35.10;23.14;99770.97;4470318;32;34446;-82
2021/07/23 12:33:30;;;;;;;;;;;;;;;34.78;22.24;99764.63;4457817;32;35493;-80
2021/07/23 12:36:01;;;;;;;;;;;;;;;34.04;23.33;99764.63;4469250;32;35767;-79
2021/07/23 12:38:29;;;;;;;;;;;;;;;33.90;24.92;99765.66;4483390;32;33263;-79
2021/07/23 12:40:59;;;;;;;;;;;;;;;33.87;24.81;99766.25;4483208;32;34192;-79
2021/07/23 12:43:27;;;;;;;;;;;;;;;33.73;24.43;99757.03;4483198;32;36438;-76
2021/07/23 12:45:57;;;;;;;;;;;;;;;33.78;23.78;99768.84;4483126;32;34087;-80
2021/07/23 12:48:24;;;;;;;;;;;;;;;33.51;24.95;99767.78;4470163;32;33100;-79
2021/07/23 12:51:22;;;;;;;;;;;;;;;33.91;24.68;99759.84;4483010;32;33840;-80
2021/07/23 12:53:57;;;;;;;;;;;;;;;34.39;22.90;99762.22;4473211;32;34207;-79
2021/07/23 12:56:32;;;;;;;;;;;;;;;35.03;23.08;99764.19;4483141;32;34907;-81
2021/07/23 12:59:00;;;;;;;;;;;;;;;33.76;23.79;99765.56;4483170;32;33802;-79